createdAt,value
2023-03-29T00:02:10.959Z,98838.38
2023-03-29T00:05:13.212Z,98838.41
2023-03-29T00:08:14.901Z,98832.41
2023-03-29T00:11:17.275Z,98836.81
2023-03-29T00:14:18.735Z,98827.41
2023-03-29T00:17:20.298Z,98838.63
2023-03-29T00:20:21.803Z,98841.69
2023-03-29T00:23:23.336Z,98845.38
2023-03-29T00:26:24.822Z,98834.81
2023-03-29T00:29:26.317Z,98853.91
2023-03-29T00:32:27.852Z,98842.00
2023-03-29T00:35:29.384Z,98859.22
2023-03-29T00:38:31.324Z,98845.47
2023-03-29T00:41:32.788Z,98841.13
2023-03-29T00:44:53.112Z,98848.84
2023-03-29T00:47:57.115Z,98834.16
2023-03-29T00:51:01.615Z,98840.28
2023-03-29T00:54:04.045Z,98819.47
2023-03-29T00:57:06.938Z,98828.97
2023-03-29T01:00:10.187Z,98829.91
2023-03-29T01:03:24.639Z,98850.28
2023-03-29T01:06:26.797Z,98847.81
2023-03-29T01:09:30.278Z,98855.69
2023-03-29T01:12:35.801Z,98878.81
2023-03-29T01:15:37.352Z,98885.00
2023-03-29T01:18:39.718Z,98896.00
2023-03-29T01:21:44.134Z,98869.91
2023-03-29T01:24:56.614Z,98870.84
2023-03-29T01:28:02.426Z,98857.63
2023-03-29T01:31:09.148Z,98850.19
2023-03-29T01:34:12.917Z,98853.06
2023-03-29T01:37:42.865Z,98839.81
2023-03-29T01:40:44.302Z,98844.19
2023-03-29T01:44:21.368Z,98830.22
2023-03-29T01:47:34.143Z,98817.81
2023-03-29T01:50:35.513Z,98815.69
2023-03-29T01:54:04.712Z,98787.81
2023-03-29T01:57:06.904Z,98786.66
2023-03-29T02:00:10.554Z,98783.31
2023-03-29T02:03:14.797Z,98774.59
2023-03-29T02:06:19.361Z,98773.69
2023-03-29T02:09:20.990Z,98762.59
2023-03-29T02:12:22.710Z,98762.38
2023-03-29T02:15:24.410Z,98762.44
2023-03-29T02:18:26.180Z,98747.84
2023-03-29T02:21:35.639Z,98751.91
2023-03-29T02:24:37.219Z,98748.69
2023-03-29T02:27:38.853Z,98749.50
2023-03-29T02:30:56.223Z,98745.09
2023-03-29T02:34:01.303Z,98739.88
2023-03-29T02:37:06.722Z,98746.00
2023-03-29T02:40:10.944Z,98750.09
2023-03-29T02:43:12.917Z,98733.81
2023-03-29T02:46:14.637Z,98723.38
2023-03-29T02:49:16.333Z,98731.16
2023-03-29T02:52:25.754Z,98738.16
2023-03-29T02:55:31.204Z,98727.72
2023-03-29T02:58:32.794Z,98733.88
2023-03-29T03:01:34.271Z,98740.84
2023-03-29T03:04:35.843Z,98732.22
2023-03-29T03:07:37.355Z,98732.97
2023-03-29T03:10:39.252Z,98734.00
2023-03-29T03:13:40.991Z,98732.25
2023-03-29T03:16:43.018Z,98732.31
2023-03-29T03:19:44.640Z,98738.41
2023-03-29T03:22:48.873Z,98744.25
2023-03-29T03:25:50.419Z,98737.34
2023-03-29T03:28:51.859Z,98735.59
2023-03-29T03:31:54.051Z,98752.88
2023-03-29T03:34:55.951Z,98755.47
2023-03-29T03:37:57.831Z,98747.66
2023-03-29T03:40:59.562Z,98737.22
2023-03-29T03:44:01.722Z,98734.63
2023-03-29T03:47:04.748Z,98726.53
2023-03-29T03:50:06.812Z,98724.06
2023-03-29T03:53:08.318Z,98721.38
2023-03-29T03:56:09.830Z,98717.16
2023-03-29T03:59:11.341Z,98729.94
2023-03-29T04:02:12.876Z,98716.06
2023-03-29T04:05:14.751Z,98734.38
2023-03-29T04:08:16.453Z,98725.72
2023-03-29T04:11:17.911Z,98734.44
2023-03-29T04:14:20.426Z,98720.53
2023-03-29T04:17:21.832Z,98718.00
2023-03-29T04:20:24.208Z,98724.06
2023-03-29T04:23:25.671Z,98723.94
2023-03-29T04:26:27.154Z,98725.84
2023-03-29T04:29:28.612Z,98729.25
2023-03-29T04:32:30.421Z,98721.44
2023-03-29T04:35:32.345Z,98719.66
2023-03-29T04:38:37.839Z,98714.22
2023-03-29T04:41:39.319Z,98711.00
2023-03-29T04:44:42.597Z,98706.44
2023-03-29T04:47:45.319Z,98695.28
2023-03-29T04:50:47.462Z,98688.28
2023-03-29T04:53:50.158Z,98686.69
2023-03-29T04:56:52.504Z,98675.06
2023-03-29T04:59:53.986Z,98677.84
2023-03-29T05:02:55.586Z,98680.44
2023-03-29T05:09:08.936Z,98671.72
2023-03-29T05:12:10.489Z,98672.66
2023-03-29T05:15:12.114Z,98679.53
2023-03-29T05:18:13.606Z,98682.16
2023-03-29T05:21:15.611Z,98683.03
2023-03-29T05:24:17.638Z,98683.03
2023-03-29T05:27:20.980Z,98670.13
2023-03-29T05:30:22.430Z,98676.13
2023-03-29T05:33:24.416Z,98662.16
2023-03-29T05:36:25.867Z,98650.00
2023-03-29T05:39:27.334Z,98644.81
2023-03-29T05:42:28.806Z,98650.16
2023-03-29T05:45:30.442Z,98637.31
2023-03-29T05:48:32.542Z,98644.13
2023-03-29T05:51:35.368Z,98631.19
2023-03-29T05:54:36.825Z,98645.91
2023-03-29T05:57:38.466Z,98646.88
2023-03-29T06:00:40.387Z,98650.34
2023-03-29T06:03:42.267Z,98657.38
2023-03-29T06:06:43.890Z,98653.88
2023-03-29T06:09:45.639Z,98646.94
2023-03-29T06:12:47.679Z,98651.34
2023-03-29T06:15:49.187Z,98650.34
2023-03-29T06:18:50.662Z,98655.81
2023-03-29T06:21:54.891Z,98652.50
2023-03-29T06:24:56.546Z,98656.84
2023-03-29T06:27:58.030Z,98655.06
2023-03-29T06:31:02.947Z,98653.31
2023-03-29T06:34:05.306Z,98656.81
2023-03-29T06:37:11.131Z,98664.56
2023-03-29T06:40:14.941Z,98659.50
2023-03-29T06:43:16.732Z,98668.31
2023-03-29T06:46:21.483Z,98676.16
2023-03-29T06:49:23.140Z,98675.38
2023-03-29T06:52:24.644Z,98678.06
2023-03-29T06:55:27.568Z,98688.47
2023-03-29T06:58:29.053Z,98676.41
2023-03-29T07:01:42.808Z,98682.63
2023-03-29T07:04:44.502Z,98680.09
2023-03-29T07:07:59.746Z,98689.59
2023-03-29T07:11:04.211Z,98686.25
2023-03-29T07:14:06.009Z,98699.31
2023-03-29T07:17:09.320Z,98699.44
2023-03-29T07:20:17.116Z,98709.03
2023-03-29T07:23:18.671Z,98717.81
2023-03-29T07:26:28.594Z,98722.16
2023-03-29T07:29:35.137Z,98728.16
2023-03-29T07:32:37.531Z,98730.03
2023-03-29T07:35:40.069Z,98740.59
2023-03-29T07:38:41.799Z,98735.34
2023-03-29T07:41:44.515Z,98733.75
2023-03-29T07:44:45.971Z,98738.22
2023-03-29T07:47:48.963Z,98745.13
2023-03-29T07:50:52.945Z,98752.13
2023-03-29T07:54:00.567Z,98757.38
2023-03-29T07:57:06.978Z,98764.34
2023-03-29T08:00:19.668Z,98760.03
2023-03-29T08:03:21.658Z,98761.78
2023-03-29T08:06:23.187Z,98757.47
2023-03-29T08:09:27.196Z,98753.94
2023-03-29T08:12:31.962Z,98759.22
2023-03-29T08:15:38.775Z,98755.97
2023-03-29T08:18:46.007Z,98760.34
2023-03-29T08:21:51.921Z,98759.53
2023-03-29T08:24:57.481Z,98762.16
2023-03-29T08:27:59.566Z,98764.75
2023-03-29T08:31:01.326Z,98762.97
2023-03-29T08:34:06.603Z,98771.66
2023-03-29T08:37:10.159Z,98766.38
2023-03-29T08:40:21.385Z,98765.50
2023-03-29T08:43:26.002Z,98759.19
2023-03-29T08:46:52.504Z,98771.09
2023-03-29T08:49:55.132Z,98765.09
2023-03-29T08:52:58.850Z,98770.31
2023-03-29T08:56:01.733Z,98759.84
2023-03-29T08:59:03.358Z,98758.03
2023-03-29T09:02:04.997Z,98754.41
2023-03-29T09:05:22.595Z,98758.47
2023-03-29T09:08:24.667Z,98756.47
2023-03-29T09:11:39.047Z,98739.91
2023-03-29T09:14:43.475Z,98741.34
2023-03-29T09:17:55.048Z,98735.75
2023-03-29T09:21:16.429Z,98733.84
2023-03-29T09:24:36.548Z,98745.72
2023-03-29T09:28:04.523Z,98740.38
2023-03-29T09:31:20.254Z,98731.53
2023-03-29T09:34:23.859Z,98744.47
2023-03-29T09:37:36.920Z,98745.59
2023-03-29T09:40:42.826Z,98736.34
2023-03-29T09:43:44.278Z,98738.16
2023-03-29T09:46:49.220Z,98744.31
2023-03-29T09:49:52.985Z,98749.34
2023-03-29T09:52:54.538Z,98742.44
2023-03-29T09:55:57.084Z,98736.06
2023-03-29T09:58:59.978Z,98733.19
2023-03-29T10:02:06.562Z,98726.09
2023-03-29T10:05:09.238Z,98736.13
2023-03-29T10:08:20.012Z,98729.31
2023-03-29T10:11:32.845Z,98724.84
2023-03-29T10:14:38.232Z,98733.66
2023-03-29T10:17:40.236Z,98725.91
2023-03-29T10:20:41.612Z,98729.91
2023-03-29T10:23:43.851Z,98724.84
2023-03-29T10:26:45.401Z,98719.81
2023-03-29T10:29:47.140Z,98704.97
2023-03-29T10:32:54.095Z,98698.75
2023-03-29T10:35:56.483Z,98703.16
2023-03-29T10:38:59.274Z,98708.09
2023-03-29T10:42:01.092Z,98708.81
2023-03-29T10:45:02.649Z,98703.47
2023-03-29T10:48:04.929Z,98704.44
2023-03-29T10:51:07.562Z,98714.28
2023-03-29T10:54:09.784Z,98706.19
2023-03-29T10:57:13.649Z,98717.88
2023-03-29T11:00:25.557Z,98711.69
2023-03-29T11:03:59.719Z,98707.63
2023-03-29T11:07:21.366Z,98689.41
2023-03-29T11:10:41.412Z,98697.59
2023-03-29T11:14:04.341Z,98705.59
2023-03-29T11:17:27.555Z,98697.97
2023-03-29T11:20:37.222Z,98688.97
2023-03-29T11:23:42.037Z,98689.84
2023-03-29T11:27:13.077Z,98700.19
2023-03-29T11:30:33.882Z,98694.63
2023-03-29T11:33:47.474Z,98696.25
2023-03-29T11:37:12.206Z,98699.31
2023-03-29T11:40:15.241Z,98699.22
2023-03-29T11:43:37.811Z,98708.66
2023-03-29T11:46:42.524Z,98709.16
2023-03-29T11:49:54.515Z,98704.97
2023-03-29T11:52:58.586Z,98693.34
2023-03-29T11:56:08.761Z,98701.72
2023-03-29T11:59:40.903Z,98691.31
2023-03-29T12:02:44.598Z,98692.50
2023-03-29T12:05:52.193Z,98687.44
2023-03-29T12:08:58.550Z,98676.16
2023-03-29T12:12:16.104Z,98672.81
2023-03-29T12:15:20.326Z,98661.97
2023-03-29T12:18:29.713Z,98662.97
2023-03-29T12:21:31.496Z,98654.19
2023-03-29T12:24:32.980Z,98660.81
2023-03-29T12:27:37.395Z,98663.66
2023-03-29T12:30:57.617Z,98655.13
2023-03-29T12:34:17.382Z,98656.31
2023-03-29T12:37:31.965Z,98656.66
2023-03-29T12:40:42.155Z,98675.16
2023-03-29T12:43:43.644Z,98656.25
2023-03-29T12:46:45.285Z,98660.88
2023-03-29T12:49:47.324Z,98657.56
2023-03-29T12:52:48.686Z,98658.22
2023-03-29T12:56:12.497Z,98663.06
2023-03-29T12:59:39.781Z,98669.75
2023-03-29T13:02:41.352Z,98658.78
2023-03-29T13:05:43.231Z,98664.84
2023-03-29T13:08:44.606Z,98665.94
2023-03-29T13:11:52.405Z,98670.41
2023-03-29T13:15:01.190Z,98671.53
2023-03-29T13:18:12.508Z,98650.72
2023-03-29T13:21:34.968Z,98639.25
2023-03-29T13:24:52.405Z,98649.97
2023-03-29T13:28:05.744Z,98649.88
2023-03-29T13:31:30.782Z,98641.31
2023-03-29T13:34:46.414Z,98646.13
2023-03-29T13:38:03.822Z,98634.97
2023-03-29T13:41:07.322Z,98635.09
2023-03-29T13:44:27.087Z,98643.13
2023-03-29T13:47:37.936Z,98627.28
2023-03-29T13:50:40.275Z,98620.00
2023-03-29T13:53:46.674Z,98614.38
2023-03-29T13:57:06.720Z,98599.53
2023-03-29T14:00:25.398Z,98610.81
2023-03-29T14:03:30.206Z,98611.84
2023-03-29T14:06:32.927Z,98606.50
2023-03-29T14:09:36.128Z,98595.41
2023-03-29T14:12:40.377Z,98588.91
2023-03-29T14:15:45.551Z,98581.66
2023-03-29T14:18:51.101Z,98578.16
2023-03-29T14:21:53.202Z,98580.31
2023-03-29T14:24:54.773Z,98590.56
2023-03-29T14:27:56.301Z,98583.69
2023-03-29T14:30:57.871Z,98587.09
2023-03-29T14:33:59.702Z,98584.72
2023-03-29T14:37:01.061Z,98588.50
2023-03-29T14:40:03.933Z,98576.13
2023-03-29T14:43:06.856Z,98568.66
2023-03-29T14:46:08.518Z,98571.94
2023-03-29T14:49:10.370Z,98543.34
2023-03-29T14:52:13.247Z,98565.09
2023-03-29T14:55:14.845Z,98563.31
2023-03-29T14:58:24.091Z,98557.53
2023-03-29T15:01:26.698Z,98540.72
2023-03-29T15:04:35.076Z,98531.09
2023-03-29T15:07:37.039Z,98534.81
2023-03-29T15:10:38.796Z,98537.72
2023-03-29T15:13:40.785Z,98547.81
2023-03-29T15:16:43.497Z,98534.47
2023-03-29T15:19:45.447Z,98524.28
2023-03-29T15:23:06.708Z,98534.59
2023-03-29T15:26:37.515Z,98525.38
2023-03-29T15:29:43.668Z,98531.06
2023-03-29T15:32:45.340Z,98524.22
2023-03-29T15:35:49.678Z,98527.38
2023-03-29T15:38:51.550Z,98522.59
2023-03-29T15:41:53.187Z,98497.53
2023-03-29T15:44:56.159Z,98502.66
2023-03-29T15:47:57.792Z,98510.41
2023-03-29T15:51:01.999Z,98510.72
2023-03-29T15:54:06.384Z,98514.75
2023-03-29T15:57:10.006Z,98508.50
2023-03-29T16:00:13.083Z,98512.09
2023-03-29T16:03:17.912Z,98507.34
2023-03-29T16:06:22.098Z,98511.34
2023-03-29T16:09:23.875Z,98519.09
2023-03-29T16:12:25.337Z,98515.25
2023-03-29T16:15:27.233Z,98505.72
2023-03-29T16:18:28.836Z,98514.00
2023-03-29T16:21:30.351Z,98518.88
2023-03-29T16:24:32.092Z,98522.84
2023-03-29T16:27:33.638Z,98522.75
2023-03-29T16:30:35.948Z,98526.88
2023-03-29T16:33:37.984Z,98518.38
2023-03-29T16:36:40.050Z,98518.97
2023-03-29T16:39:41.764Z,98501.56
2023-03-29T16:42:43.242Z,98509.25
2023-03-29T16:45:44.799Z,98512.22
2023-03-29T16:48:46.383Z,98508.19
2023-03-29T16:51:48.280Z,98503.78
2023-03-29T16:54:49.616Z,98504.25
2023-03-29T16:57:51.143Z,98498.59
2023-03-29T17:00:54.390Z,98496.38
2023-03-29T17:03:55.908Z,98495.00
2023-03-29T17:06:57.396Z,98492.41
2023-03-29T17:09:59.012Z,98491.38
2023-03-29T17:13:00.862Z,98476.19
2023-03-29T17:16:02.592Z,98483.44
2023-03-29T17:19:04.253Z,98488.81
2023-03-29T17:22:05.912Z,98479.59
2023-03-29T17:25:07.941Z,98480.59
2023-03-29T17:28:09.614Z,98479.25
2023-03-29T17:31:11.099Z,98477.53
2023-03-29T17:34:13.811Z,98458.69
2023-03-29T17:37:15.712Z,98463.53
2023-03-29T17:40:17.946Z,98469.06
2023-03-29T17:43:19.445Z,98467.38
2023-03-29T17:46:22.951Z,98465.97
2023-03-29T17:49:24.740Z,98464.25
2023-03-29T17:52:30.049Z,98452.13
2023-03-29T17:55:34.026Z,98447.25
2023-03-29T17:58:35.706Z,98433.41
2023-03-29T18:01:39.060Z,98448.97
2023-03-29T18:04:40.969Z,98454.22
2023-03-29T18:07:42.592Z,98435.84
2023-03-29T18:10:44.170Z,98442.84
2023-03-29T18:13:45.941Z,98428.94
2023-03-29T18:16:47.570Z,98421.16
2023-03-29T18:19:49.182Z,98400.28
2023-03-29T18:22:50.761Z,98387.06
2023-03-29T18:25:52.428Z,98414.06
2023-03-29T18:28:54.245Z,98424.63
2023-03-29T18:31:55.826Z,98450.69
2023-03-29T18:34:57.428Z,98432.53
2023-03-29T18:37:59.030Z,98423.94
2023-03-29T18:41:03.618Z,98428.94
2023-03-29T18:44:05.486Z,98440.25
2023-03-29T18:47:09.869Z,98440.16
2023-03-29T18:50:15.484Z,98446.50
2023-03-29T18:53:17.375Z,98450.88
2023-03-29T18:56:25.225Z,98452.00
2023-03-29T18:59:26.795Z,98433.59
2023-03-29T19:02:28.349Z,98430.75
2023-03-29T19:05:29.944Z,98436.06
2023-03-29T19:08:32.959Z,98438.78
2023-03-29T19:11:36.034Z,98444.13
2023-03-29T19:14:38.020Z,98428.44
2023-03-29T19:17:42.245Z,98437.38
2023-03-29T19:20:47.100Z,98433.97
2023-03-29T19:23:53.504Z,98425.47
2023-03-29T19:26:57.069Z,98431.50
2023-03-29T19:29:59.875Z,98432.44
2023-03-29T19:33:02.092Z,98427.16
2023-03-29T19:36:04.094Z,98435.03
2023-03-29T19:39:06.379Z,98430.69
2023-03-29T19:42:11.371Z,98420.34
2023-03-29T19:45:12.932Z,98410.63
2023-03-29T19:48:22.422Z,98411.59
2023-03-29T19:51:30.950Z,98419.50
2023-03-29T19:54:33.531Z,98392.53
2023-03-29T19:57:35.045Z,98397.13
2023-03-29T20:00:38.743Z,98409.50
2023-03-29T20:03:43.550Z,98402.06
2023-03-29T20:06:45.529Z,98387.22
2023-03-29T20:09:47.317Z,98389.91
2023-03-29T20:12:49.252Z,98386.31
2023-03-29T20:15:51.378Z,98382.13
2023-03-29T20:18:53.969Z,98382.13
2023-03-29T20:21:57.558Z,98368.22
2023-03-29T20:24:59.152Z,98377.75
2023-03-29T20:28:00.647Z,98364.72
2023-03-29T20:31:04.126Z,98372.56
2023-03-29T20:34:05.792Z,98365.59
2023-03-29T20:37:07.518Z,98363.88
2023-03-29T20:40:09.418Z,98360.56
2023-03-29T20:43:13.061Z,98358.56
2023-03-29T20:46:18.286Z,98336.97
2023-03-29T20:49:26.146Z,98354.28
2023-03-29T20:52:27.878Z,98341.63
2023-03-29T20:55:30.400Z,98339.75
2023-03-29T20:58:31.991Z,98327.28
2023-03-29T21:01:35.250Z,98327.38
2023-03-29T21:04:36.830Z,98325.53
2023-03-29T21:07:38.782Z,98318.53
2023-03-29T21:10:42.419Z,98315.38
2023-03-29T21:13:43.918Z,98316.34
2023-03-29T21:16:47.236Z,98315.19
2023-03-29T21:19:48.972Z,98324.66
2023-03-29T21:22:50.495Z,98314.78
2023-03-29T21:25:51.979Z,98321.03
2023-03-29T21:28:53.478Z,98298.97
2023-03-29T21:31:55.314Z,98309.25
2023-03-29T21:34:57.368Z,98313.22
2023-03-29T21:37:59.097Z,98313.66
2023-03-29T21:41:00.998Z,98305.25
2023-03-29T21:44:02.399Z,98314.94
2023-03-29T21:47:04.012Z,98299.31
2023-03-29T21:50:05.969Z,98300.47
2023-03-29T21:53:07.309Z,98293.88
2023-03-29T21:56:13.936Z,98301.88
2023-03-29T21:59:15.397Z,98307.25
2023-03-29T22:02:16.978Z,98290.69
2023-03-29T22:05:18.602Z,98286.31
2023-03-29T22:08:20.076Z,98283.38
2023-03-29T22:11:23.056Z,98283.47
2023-03-29T22:14:24.575Z,98277.72
2023-03-29T22:17:26.674Z,98281.56
2023-03-29T22:20:28.300Z,98291.91
2023-03-29T22:23:30.128Z,98288.50
2023-03-29T22:26:32.095Z,98292.78
2023-03-29T22:29:33.505Z,98286.28
2023-03-29T22:32:34.988Z,98292.06
2023-03-29T22:35:36.590Z,98294.31
2023-03-29T22:38:38.083Z,98293.91
2023-03-29T22:41:39.569Z,98288.41
2023-03-29T22:44:41.160Z,98298.81
2023-03-29T22:47:42.636Z,98291.50
2023-03-29T22:50:46.633Z,98299.56
2023-03-29T22:53:48.319Z,98308.44
2023-03-29T22:56:49.835Z,98332.69
2023-03-29T22:59:51.400Z,98330.84
2023-03-29T23:02:52.901Z,98307.47
2023-03-29T23:05:56.288Z,98295.06
2023-03-29T23:08:57.788Z,98290.97
2023-03-29T23:11:59.436Z,98283.47
2023-03-29T23:15:00.977Z,98271.09
2023-03-29T23:18:02.676Z,98270.06
2023-03-29T23:21:05.867Z,98277.72
2023-03-29T23:24:08.518Z,98266.16
2023-03-29T23:27:10.184Z,98251.69
2023-03-29T23:30:11.858Z,98251.34
2023-03-29T23:33:14.428Z,98261.59
2023-03-29T23:36:17.355Z,98250.06
2023-03-29T23:39:18.834Z,98253.41
2023-03-29T23:42:20.997Z,98245.44
2023-03-29T23:45:22.377Z,98248.31
2023-03-29T23:48:24.183Z,98233.78
2023-03-29T23:51:28.259Z,98235.69
2023-03-29T23:54:29.868Z,98226.03
2023-03-29T23:57:34.062Z,98216.47
